Página principal
METAR-TAF:

METAR-TAF

Aeroportos :

Aeroporto Internacional de Faa'a

Taiti, Polinésia Francesa

latitude: 17-33S, longitude: 149-37W, altura: 2 m

Observação actual do tempo

O boletim foi feito há 20 minutos, às 15:30 UTC
Vento 2 kt com direcção variável
Temperatura 22°C
Humidade 83%
Pressão 1012 hPa
Visibilidade 10 km ou mais
Poucas nuvensa uma altura de 4000 ft

METAR: NTAA 231530Z AUTO VRB02KT 9999 FEW040 22/19 Q1012

Hora: 05:50 (15:50 UTC)

Previsão

O boletim foi feito há 4 horas e 50 minutos, às 11:00 UTC
Previsão válida de 23 às 12 UTC a 24 às 18 UTC
Vento 3 kt com direcção variável
Visibilidade 10 km ou mais
Poucas nuvensa uma altura de 2000 ft
Nuvens dispersasa uma altura de 5000 ft
Probabilidade 30% :
Temporariamente
de 23 às 20 UTC a 24 às 03 UTC
Vento 20 kt de su-sudoeste com rajadas de 30 kt

TAF: NTAA 231100Z 2312/2418 VRB03KT 9999 FEW020 SCT050 PROB30 TEMPO 2320/2403 21020G30KT

Observações e previsões do tempo de mais de 4000 aeroportos (mensagens METAR e TAF).

As estações disponíveis são os pontos amarelos e vermelhos sobre o mapa.

Mova o rato sobre o mapa para ver o nome da estação.

Depois clique no ponto para visualizar as observações e previsões meteorológicas.

Para alterar o mapa : clique nos botões verdes com uma cruz preta para aumentar o zoom; no botão verde com uma pitada de zoom; ou nas setas verdes para mapas adjacentes.


METAR-TAF: